sensor_id;sensor_type;location;lat;lon;timestamp;P1;P2;P0
70436;PMS5003;57877;39.750;-104.894;2023-03-01T00:02:08;0;0;
70436;PMS5003;57877;39.750;-104.894;2023-03-01T00:04:35;0;0;
70436;PMS5003;57877;39.750;-104.894;2023-03-01T00:07:01;0;0;
70436;PMS5003;57877;39.750;-104.894;2023-03-01T00:09:27;0;0;
70436;PMS5003;57877;39.750;-104.894;2023-03-01T00:11:54;0;0;
70436;PMS5003;57877;39.750;-104.894;2023-03-01T00:14:18;0;0;
70436;PMS5003;57877;39.750;-104.894;2023-03-01T00:16:45;0;0;
70436;PMS5003;57877;39.750;-104.894;2023-03-01T00:19:13;0;0;
70436;PMS5003;57877;39.750;-104.894;2023-03-01T00:21:37;0;0;
70436;PMS5003;57877;39.750;-104.894;2023-03-01T00:24:02;0;0;
70436;PMS5003;57877;39.750;-104.894;2023-03-01T00:26:28;0;0;
70436;PMS5003;57877;39.750;-104.894;2023-03-01T00:28:54;2;1;
70436;PMS5003;57877;39.750;-104.894;2023-03-01T00:31:21;0;0;
70436;PMS5003;57877;39.750;-104.894;2023-03-01T00:33:46;0;0;
70436;PMS5003;57877;39.750;-104.894;2023-03-01T00:36:13;0;0;
70436;PMS5003;57877;39.750;-104.894;2023-03-01T00:38:39;0;0;
70436;PMS5003;57877;39.750;-104.894;2023-03-01T00:41:05;0;0;
70436;PMS5003;57877;39.750;-104.894;2023-03-01T00:43:30;0;0;
70436;PMS5003;57877;39.750;-104.894;2023-03-01T00:45:57;0;0;
70436;PMS5003;57877;39.750;-104.894;2023-03-01T00:48:22;0;0;
70436;PMS5003;57877;39.750;-104.894;2023-03-01T00:50:48;0;0;
70436;PMS5003;57877;39.750;-104.894;2023-03-01T00:53:14;0;0;
70436;PMS5003;57877;39.750;-104.894;2023-03-01T00:55:40;0;0;
70436;PMS5003;57877;39.750;-104.894;2023-03-01T00:58:06;0;0;
70436;PMS5003;57877;39.750;-104.894;2023-03-01T01:00:32;0;0;
70436;PMS5003;57877;39.750;-104.894;2023-03-01T01:02:58;0;0;
70436;PMS5003;57877;39.750;-104.894;2023-03-01T01:05:23;0;0;
70436;PMS5003;57877;39.750;-104.894;2023-03-01T01:07:49;0;0;
70436;PMS5003;57877;39.750;-104.894;2023-03-01T01:10:15;0;0;
70436;PMS5003;57877;39.750;-104.894;2023-03-01T01:12:41;0;0;
70436;PMS5003;57877;39.750;-104.894;2023-03-01T01:15:07;0;0;
70436;PMS5003;57877;39.750;-104.894;2023-03-01T01:17:33;0;0;
70436;PMS5003;57877;39.750;-104.894;2023-03-01T01:19:59;0;0;
70436;PMS5003;57877;39.750;-104.894;2023-03-01T01:22:25;0;0;
70436;PMS5003;57877;39.750;-104.894;2023-03-01T01:24:51;0;0;
70436;PMS5003;57877;39.750;-104.894;2023-03-01T01:27:17;0;0;
70436;PMS5003;57877;39.750;-104.894;2023-03-01T01:29:43;0;0;
70436;PMS5003;57877;39.750;-104.894;2023-03-01T01:32:09;0;0;
70436;PMS5003;57877;39.750;-104.894;2023-03-01T01:34:35;0;0;
70436;PMS5003;57877;39.750;-104.894;2023-03-01T01:37:01;0;0;
70436;PMS5003;57877;39.750;-104.894;2023-03-01T01:39:27;0;0;
70436;PMS5003;57877;39.750;-104.894;2023-03-01T01:41:53;0;0;
70436;PMS5003;57877;39.750;-104.894;2023-03-01T01:44:20;0;0;
70436;PMS5003;57877;39.750;-104.894;2023-03-01T01:46:46;0;0;
70436;PMS5003;57877;39.750;-104.894;2023-03-01T01:49:15;0;0;
70436;PMS5003;57877;39.750;-104.894;2023-03-01T01:51:38;0;0;
70436;PMS5003;57877;39.750;-104.894;2023-03-01T01:54:06;0;0;
70436;PMS5003;57877;39.750;-104.894;2023-03-01T01:56:28;0;0;
70436;PMS5003;57877;39.750;-104.894;2023-03-01T01:58:54;0;0;
70436;PMS5003;57877;39.750;-104.894;2023-03-01T02:01:20;0;0;
70436;PMS5003;57877;39.750;-104.894;2023-03-01T02:03:46;0;0;
70436;PMS5003;57877;39.750;-104.894;2023-03-01T02:06:12;0;0;
70436;PMS5003;57877;39.750;-104.894;2023-03-01T02:08:38;0;0;
70436;PMS5003;57877;39.750;-104.894;2023-03-01T02:11:03;0;0;
70436;PMS5003;57877;39.750;-104.894;2023-03-01T02:13:29;0;0;
70436;PMS5003;57877;39.750;-104.894;2023-03-01T02:15:55;0;0;
70436;PMS5003;57877;39.750;-104.894;2023-03-01T02:18:22;0;0;
70436;PMS5003;57877;39.750;-104.894;2023-03-01T02:20:50;0;0;
70436;PMS5003;57877;39.750;-104.894;2023-03-01T02:23:12;0;0;
70436;PMS5003;57877;39.750;-104.894;2023-03-01T02:25:40;0;0;
70436;PMS5003;57877;39.750;-104.894;2023-03-01T02:28:06;0;0;
70436;PMS5003;57877;39.750;-104.894;2023-03-01T02:30:30;0;0;
70436;PMS5003;57877;39.750;-104.894;2023-03-01T02:32:56;0;0;
70436;PMS5003;57877;39.750;-104.894;2023-03-01T02:35:28;0;0;
70436;PMS5003;57877;39.750;-104.894;2023-03-01T02:37:47;0;0;
70436;PMS5003;57877;39.750;-104.894;2023-03-01T02:40:13;0;0;
70436;PMS5003;57877;39.750;-104.894;2023-03-01T02:42:41;0;0;
70436;PMS5003;57877;39.750;-104.894;2023-03-01T02:45:04;0;0;
70436;PMS5003;57877;39.750;-104.894;2023-03-01T02:47:28;0;0;
70436;PMS5003;57877;39.750;-104.894;2023-03-01T02:49:54;0;0;
70436;PMS5003;57877;39.750;-104.894;2023-03-01T02:52:23;0;0;
70436;PMS5003;57877;39.750;-104.894;2023-03-01T02:54:46;0;0;
70436;PMS5003;57877;39.750;-104.894;2023-03-01T02:57:11;0;0;
70436;PMS5003;57877;39.750;-104.894;2023-03-01T02:59:37;0;0;
70436;PMS5003;57877;39.750;-104.894;2023-03-01T03:02:02;0;0;
70436;PMS5003;57877;39.750;-104.894;2023-03-01T03:04:33;0;0;
70436;PMS5003;57877;39.750;-104.894;2023-03-01T03:06:55;0;0;
70436;PMS5003;57877;39.750;-104.894;2023-03-01T03:09:20;0;0;
70436;PMS5003;57877;39.750;-104.894;2023-03-01T03:11:46;0;0;
70436;PMS5003;57877;39.750;-104.894;2023-03-01T03:14:13;0;0;
70436;PMS5003;57877;39.750;-104.894;2023-03-01T03:16:45;0;0;
70436;PMS5003;57877;39.750;-104.894;2023-03-01T03:19:05;0;0;
70436;PMS5003;57877;39.750;-104.894;2023-03-01T03:21:31;0;0;
70436;PMS5003;57877;39.750;-104.894;2023-03-01T03:23:56;0;0;
70436;PMS5003;57877;39.750;-104.894;2023-03-01T03:26:22;0;0;
70436;PMS5003;57877;39.750;-104.894;2023-03-01T03:28:48;0;0;
70436;PMS5003;57877;39.750;-104.894;2023-03-01T03:31:15;0;0;
70436;PMS5003;57877;39.750;-104.894;2023-03-01T03:33:40;0;0;
70436;PMS5003;57877;39.750;-104.894;2023-03-01T03:36:07;0;0;
70436;PMS5003;57877;39.750;-104.894;2023-03-01T03:38:32;0;0;
70436;PMS5003;57877;39.750;-104.894;2023-03-01T03:41:00;0;0;
70436;PMS5003;57877;39.750;-104.894;2023-03-01T03:43:30;0;0;
70436;PMS5003;57877;39.750;-104.894;2023-03-01T03:45:50;0;0;
70436;PMS5003;57877;39.750;-104.894;2023-03-01T03:48:16;0;0;
70436;PMS5003;57877;39.750;-104.894;2023-03-01T03:50:48;0;0;
70436;PMS5003;57877;39.750;-104.894;2023-03-01T03:53:09;0;0;
70436;PMS5003;57877;39.750;-104.894;2023-03-01T03:55:35;0;0;
70436;PMS5003;57877;39.750;-104.894;2023-03-01T03:58:01;0;0;
70436;PMS5003;57877;39.750;-104.894;2023-03-01T04:00:27;0;0;
70436;PMS5003;57877;39.750;-104.894;2023-03-01T04:02:52;0;0;
70436;PMS5003;57877;39.750;-104.894;2023-03-01T04:05:19;0;0;
70436;PMS5003;57877;39.750;-104.894;2023-03-01T04:07:45;0;0;
70436;PMS5003;57877;39.750;-104.894;2023-03-01T04:10:12;0;0;
70436;PMS5003;57877;39.750;-104.894;2023-03-01T04:12:36;0;0;
70436;PMS5003;57877;39.750;-104.894;2023-03-01T04:15:02;0;0;
70436;PMS5003;57877;39.750;-104.894;2023-03-01T04:17:26;0;0;
70436;PMS5003;57877;39.750;-104.894;2023-03-01T04:19:52;0;0;
70436;PMS5003;57877;39.750;-104.894;2023-03-01T04:22:19;0;0;
70436;PMS5003;57877;39.750;-104.894;2023-03-01T04:24:45;0;0;
70436;PMS5003;57877;39.750;-104.894;2023-03-01T04:27:12;0;0;
70436;PMS5003;57877;39.750;-104.894;2023-03-01T04:29:36;0;0;
70436;PMS5003;57877;39.750;-104.894;2023-03-01T04:32:03;0;0;
70436;PMS5003;57877;39.750;-104.894;2023-03-01T04:34:29;0;0;
70436;PMS5003;57877;39.750;-104.894;2023-03-01T04:37:00;0;0;
70436;PMS5003;57877;39.750;-104.894;2023-03-01T04:39:21;0;0;
70436;PMS5003;57877;39.750;-104.894;2023-03-01T04:41:47;0;0;
70436;PMS5003;57877;39.750;-104.894;2023-03-01T04:44:12;0;0;
70436;PMS5003;57877;39.750;-104.894;2023-03-01T04:53:56;0;0;
70436;PMS5003;57877;39.750;-104.894;2023-03-01T04:56:22;0;0;
70436;PMS5003;57877;39.750;-104.894;2023-03-01T04:58:47;0;0;
70436;PMS5003;57877;39.750;-104.894;2023-03-01T05:01:13;0;0;
70436;PMS5003;57877;39.750;-104.894;2023-03-01T05:08:30;0;0;
70436;PMS5003;57877;39.750;-104.894;2023-03-01T05:20:38;0;0;
70436;PMS5003;57877;39.750;-104.894;2023-03-01T05:23:04;0;0;
70436;PMS5003;57877;39.750;-104.894;2023-03-01T05:27:56;0;0;
70436;PMS5003;57877;39.750;-104.894;2023-03-01T05:30:21;0;0;
70436;PMS5003;57877;39.750;-104.894;2023-03-01T05:32:48;0;0;
70436;PMS5003;57877;39.750;-104.894;2023-03-01T05:35:15;0;0;
70436;PMS5003;57877;39.750;-104.894;2023-03-01T05:40:03;0;0;
70436;PMS5003;57877;39.750;-104.894;2023-03-01T05:44:53;0;0;
70436;PMS5003;57877;39.750;-104.894;2023-03-01T05:47:18;0;0;
70436;PMS5003;57877;39.750;-104.894;2023-03-01T05:49:43;0;0;
70436;PMS5003;57877;39.750;-104.894;2023-03-01T05:52:08;0;0;
70436;PMS5003;57877;39.750;-104.894;2023-03-01T05:57:08;0;0;
70436;PMS5003;57877;39.750;-104.894;2023-03-01T05:59:25;0;0;
70436;PMS5003;57877;39.750;-104.894;2023-03-01T06:04:15;0;0;
70436;PMS5003;57877;39.750;-104.894;2023-03-01T06:06:42;0;0;
70436;PMS5003;57877;39.750;-104.894;2023-03-01T06:11:31;0;0;
70436;PMS5003;57877;39.750;-104.894;2023-03-01T06:13:56;0;0;
70436;PMS5003;57877;39.750;-104.894;2023-03-01T06:16:21;0;0;
70436;PMS5003;57877;39.750;-104.894;2023-03-01T06:18:47;0;0;
70436;PMS5003;57877;39.750;-104.894;2023-03-01T06:21:13;0;0;
70436;PMS5003;57877;39.750;-104.894;2023-03-01T06:23:39;0;0;
70436;PMS5003;57877;39.750;-104.894;2023-03-01T06:26:06;0;0;
70436;PMS5003;57877;39.750;-104.894;2023-03-01T06:28:30;0;0;
70436;PMS5003;57877;39.750;-104.894;2023-03-01T06:30:56;0;0;
70436;PMS5003;57877;39.750;-104.894;2023-03-01T06:33:21;0;0;
70436;PMS5003;57877;39.750;-104.894;2023-03-01T06:35:46;0;0;
70436;PMS5003;57877;39.750;-104.894;2023-03-01T06:38:12;0;0;
70436;PMS5003;57877;39.750;-104.894;2023-03-01T06:40:37;0;0;
70436;PMS5003;57877;39.750;-104.894;2023-03-01T06:43:03;0;0;
70436;PMS5003;57877;39.750;-104.894;2023-03-01T06:45:28;0;0;
70436;PMS5003;57877;39.750;-104.894;2023-03-01T06:50:20;0;0;
70436;PMS5003;57877;39.750;-104.894;2023-03-01T06:52:46;0;0;
70436;PMS5003;57877;39.750;-104.894;2023-03-01T06:55:11;0;0;
70436;PMS5003;57877;39.750;-104.894;2023-03-01T06:57:36;0;0;
70436;PMS5003;57877;39.750;-104.894;2023-03-01T07:00:01;0;0;
70436;PMS5003;57877;39.750;-104.894;2023-03-01T07:02:26;0;0;
70436;PMS5003;57877;39.750;-104.894;2023-03-01T07:04:51;0;0;
70436;PMS5003;57877;39.750;-104.894;2023-03-01T07:07:17;0;0;
70436;PMS5003;57877;39.750;-104.894;2023-03-01T07:09:43;0;0;
70436;PMS5003;57877;39.750;-104.894;2023-03-01T07:12:08;0;0;
70436;PMS5003;57877;39.750;-104.894;2023-03-01T07:14:34;0;0;
70436;PMS5003;57877;39.750;-104.894;2023-03-01T07:17:01;0;0;
70436;PMS5003;57877;39.750;-104.894;2023-03-01T07:19:25;0;0;
70436;PMS5003;57877;39.750;-104.894;2023-03-01T07:21:50;0;0;
70436;PMS5003;57877;39.750;-104.894;2023-03-01T07:24:15;0;0;
70436;PMS5003;57877;39.750;-104.894;2023-03-01T07:26:40;0;0;
70436;PMS5003;57877;39.750;-104.894;2023-03-01T07:29:06;0;0;
70436;PMS5003;57877;39.750;-104.894;2023-03-01T07:31:30;0;0;
70436;PMS5003;57877;39.750;-104.894;2023-03-01T07:33:56;0;0;
70436;PMS5003;57877;39.750;-104.894;2023-03-01T07:36:21;0;0;
70436;PMS5003;57877;39.750;-104.894;2023-03-01T07:38:46;0;0;
70436;PMS5003;57877;39.750;-104.894;2023-03-01T07:41:11;0;0;
70436;PMS5003;57877;39.750;-104.894;2023-03-01T07:43:36;0;0;
70436;PMS5003;57877;39.750;-104.894;2023-03-01T07:46:02;0;0;
70436;PMS5003;57877;39.750;-104.894;2023-03-01T07:48:27;1;0;
70436;PMS5003;57877;39.750;-104.894;2023-03-01T07:50:52;1;0;
70436;PMS5003;57877;39.750;-104.894;2023-03-01T07:53:17;1;0;
70436;PMS5003;57877;39.750;-104.894;2023-03-01T07:55:42;0;0;
70436;PMS5003;57877;39.750;-104.894;2023-03-01T07:58:07;0;0;
70436;PMS5003;57877;39.750;-104.894;2023-03-01T08:00:32;1;0;
70436;PMS5003;57877;39.750;-104.894;2023-03-01T08:02:59;0;0;
70436;PMS5003;57877;39.750;-104.894;2023-03-01T08:05:23;0;0;
70436;PMS5003;57877;39.750;-104.894;2023-03-01T08:07:48;0;0;
70436;PMS5003;57877;39.750;-104.894;2023-03-01T08:10:13;0;0;
70436;PMS5003;57877;39.750;-104.894;2023-03-01T08:12:38;0;0;
70436;PMS5003;57877;39.750;-104.894;2023-03-01T08:15:04;1;1;
70436;PMS5003;57877;39.750;-104.894;2023-03-01T08:17:28;0;0;
70436;PMS5003;57877;39.750;-104.894;2023-03-01T08:19:53;0;0;
70436;PMS5003;57877;39.750;-104.894;2023-03-01T08:22:19;0;0;
70436;PMS5003;57877;39.750;-104.894;2023-03-01T08:24:46;0;0;
70436;PMS5003;57877;39.750;-104.894;2023-03-01T08:27:10;0;0;
70436;PMS5003;57877;39.750;-104.894;2023-03-01T08:29:35;0;0;
70436;PMS5003;57877;39.750;-104.894;2023-03-01T08:32:00;0;0;
70436;PMS5003;57877;39.750;-104.894;2023-03-01T08:34:26;0;0;
70436;PMS5003;57877;39.750;-104.894;2023-03-01T08:36:51;0;0;
70436;PMS5003;57877;39.750;-104.894;2023-03-01T08:39:16;1;0;
70436;PMS5003;57877;39.750;-104.894;2023-03-01T08:41:42;0;0;
70436;PMS5003;57877;39.750;-104.894;2023-03-01T08:44:06;0;0;
70436;PMS5003;57877;39.750;-104.894;2023-03-01T08:46:32;1;0;
70436;PMS5003;57877;39.750;-104.894;2023-03-01T08:48:56;2;0;
70436;PMS5003;57877;39.750;-104.894;2023-03-01T08:51:21;1;0;
70436;PMS5003;57877;39.750;-104.894;2023-03-01T08:53:46;1;1;
70436;PMS5003;57877;39.750;-104.894;2023-03-01T08:56:12;0;0;
70436;PMS5003;57877;39.750;-104.894;2023-03-01T08:58:36;2;2;
70436;PMS5003;57877;39.750;-104.894;2023-03-01T09:01:04;2;2;
70436;PMS5003;57877;39.750;-104.894;2023-03-01T09:03:27;0;0;
70436;PMS5003;57877;39.750;-104.894;2023-03-01T09:05:51;0;0;
70436;PMS5003;57877;39.750;-104.894;2023-03-01T09:08:19;1;0;
70436;PMS5003;57877;39.750;-104.894;2023-03-01T09:10:41;0;0;
70436;PMS5003;57877;39.750;-104.894;2023-03-01T09:13:07;1;0;
70436;PMS5003;57877;39.750;-104.894;2023-03-01T09:15:32;0;0;
70436;PMS5003;57877;39.750;-104.894;2023-03-01T09:17:57;0;0;
70436;PMS5003;57877;39.750;-104.894;2023-03-01T09:20:22;1;1;
70436;PMS5003;57877;39.750;-104.894;2023-03-01T09:22:47;1;0;
70436;PMS5003;57877;39.750;-104.894;2023-03-01T09:25:12;0;0;
70436;PMS5003;57877;39.750;-104.894;2023-03-01T09:27:37;1;1;
70436;PMS5003;57877;39.750;-104.894;2023-03-01T09:30:02;1;1;
70436;PMS5003;57877;39.750;-104.894;2023-03-01T09:32:28;0;0;
70436;PMS5003;57877;39.750;-104.894;2023-03-01T09:34:52;1;1;
70436;PMS5003;57877;39.750;-104.894;2023-03-01T09:37:17;0;0;
70436;PMS5003;57877;39.750;-104.894;2023-03-01T09:39:42;0;0;
70436;PMS5003;57877;39.750;-104.894;2023-03-01T09:42:11;1;0;
70436;PMS5003;57877;39.750;-104.894;2023-03-01T09:44:34;1;0;
70436;PMS5003;57877;39.750;-104.894;2023-03-01T09:46:58;0;0;
70436;PMS5003;57877;39.750;-104.894;2023-03-01T09:49:23;1;0;
70436;PMS5003;57877;39.750;-104.894;2023-03-01T09:51:52;2;0;
70436;PMS5003;57877;39.750;-104.894;2023-03-01T09:54:13;0;0;
70436;PMS5003;57877;39.750;-104.894;2023-03-01T09:56:39;0;0;
70436;PMS5003;57877;39.750;-104.894;2023-03-01T09:59:06;0;0;
70436;PMS5003;57877;39.750;-104.894;2023-03-01T10:01:30;2;1;
70436;PMS5003;57877;39.750;-104.894;2023-03-01T10:03:58;0;0;
70436;PMS5003;57877;39.750;-104.894;2023-03-01T10:06:20;0;0;
70436;PMS5003;57877;39.750;-104.894;2023-03-01T10:08:46;1;0;
70436;PMS5003;57877;39.750;-104.894;2023-03-01T10:11:17;1;1;
70436;PMS5003;57877;39.750;-104.894;2023-03-01T10:13:37;0;0;
70436;PMS5003;57877;39.750;-104.894;2023-03-01T10:16:01;1;0;
70436;PMS5003;57877;39.750;-104.894;2023-03-01T10:18:26;1;1;
70436;PMS5003;57877;39.750;-104.894;2023-03-01T10:20:52;0;0;
70436;PMS5003;57877;39.750;-104.894;2023-03-01T10:23:15;0;0;
70436;PMS5003;57877;39.750;-104.894;2023-03-01T10:25:47;0;0;
70436;PMS5003;57877;39.750;-104.894;2023-03-01T10:28:07;0;0;
70436;PMS5003;57877;39.750;-104.894;2023-03-01T10:30:32;0;0;
70436;PMS5003;57877;39.750;-104.894;2023-03-01T10:32:55;0;0;
70436;PMS5003;57877;39.750;-104.894;2023-03-01T10:35:22;0;0;
70436;PMS5003;57877;39.750;-104.894;2023-03-01T10:40:11;0;0;
70436;PMS5003;57877;39.750;-104.894;2023-03-01T10:42:37;0;0;
70436;PMS5003;57877;39.750;-104.894;2023-03-01T10:47:27;0;0;
70436;PMS5003;57877;39.750;-104.894;2023-03-01T10:49:53;0;0;
70436;PMS5003;57877;39.750;-104.894;2023-03-01T10:52:17;0;0;
70436;PMS5003;57877;39.750;-104.894;2023-03-01T10:54:43;0;0;
70436;PMS5003;57877;39.750;-104.894;2023-03-01T10:57:10;1;0;
70436;PMS5003;57877;39.750;-104.894;2023-03-01T10:59:33;0;0;
70436;PMS5003;57877;39.750;-104.894;2023-03-01T11:04:22;0;0;
70436;PMS5003;57877;39.750;-104.894;2023-03-01T11:06:48;0;0;
70436;PMS5003;57877;39.750;-104.894;2023-03-01T11:09:14;0;0;
70436;PMS5003;57877;39.750;-104.894;2023-03-01T11:11:38;0;0;
70436;PMS5003;57877;39.750;-104.894;2023-03-01T11:14:05;0;0;
70436;PMS5003;57877;39.750;-104.894;2023-03-01T11:16:30;0;0;
70436;PMS5003;57877;39.750;-104.894;2023-03-01T11:18:57;0;0;
70436;PMS5003;57877;39.750;-104.894;2023-03-01T11:21:18;0;0;
70436;PMS5003;57877;39.750;-104.894;2023-03-01T11:23:43;0;0;
70436;PMS5003;57877;39.750;-104.894;2023-03-01T11:26:09;0;0;
70436;PMS5003;57877;39.750;-104.894;2023-03-01T11:28:36;0;0;
70436;PMS5003;57877;39.750;-104.894;2023-03-01T11:31:00;0;0;
70436;PMS5003;57877;39.750;-104.894;2023-03-01T11:33:29;0;0;
70436;PMS5003;57877;39.750;-104.894;2023-03-01T11:35:53;0;0;
70436;PMS5003;57877;39.750;-104.894;2023-03-01T11:38:18;0;0;
70436;PMS5003;57877;39.750;-104.894;2023-03-01T11:40:41;0;0;
70436;PMS5003;57877;39.750;-104.894;2023-03-01T11:43:08;0;0;
70436;PMS5003;57877;39.750;-104.894;2023-03-01T11:45:31;0;0;
70436;PMS5003;57877;39.750;-104.894;2023-03-01T11:47:59;0;0;
70436;PMS5003;57877;39.750;-104.894;2023-03-01T11:50:24;0;0;
70436;PMS5003;57877;39.750;-104.894;2023-03-01T11:52:50;0;0;
70436;PMS5003;57877;39.750;-104.894;2023-03-01T11:55:16;0;0;
70436;PMS5003;57877;39.750;-104.894;2023-03-01T11:57:40;0;0;
70436;PMS5003;57877;39.750;-104.894;2023-03-01T12:00:04;0;0;
70436;PMS5003;57877;39.750;-104.894;2023-03-01T12:02:32;0;0;
70436;PMS5003;57877;39.750;-104.894;2023-03-01T12:07:18;0;0;
70436;PMS5003;57877;39.750;-104.894;2023-03-01T12:09:46;0;0;
70436;PMS5003;57877;39.750;-104.894;2023-03-01T12:14:37;0;0;
70436;PMS5003;57877;39.750;-104.894;2023-03-01T12:19:26;0;0;
70436;PMS5003;57877;39.750;-104.894;2023-03-01T12:21:52;0;0;
70436;PMS5003;57877;39.750;-104.894;2023-03-01T12:26:39;0;0;
70436;PMS5003;57877;39.750;-104.894;2023-03-01T12:33:56;0;0;
70436;PMS5003;57877;39.750;-104.894;2023-03-01T12:36:22;0;0;
70436;PMS5003;57877;39.750;-104.894;2023-03-01T12:38:45;0;0;
70436;PMS5003;57877;39.750;-104.894;2023-03-01T12:41:16;0;0;
70436;PMS5003;57877;39.750;-104.894;2023-03-01T12:43:38;0;0;
70436;PMS5003;57877;39.750;-104.894;2023-03-01T12:46:03;0;0;
70436;PMS5003;57877;39.750;-104.894;2023-03-01T12:48:29;0;0;
70436;PMS5003;57877;39.750;-104.894;2023-03-01T12:50:51;0;0;
70436;PMS5003;57877;39.750;-104.894;2023-03-01T12:53:19;0;0;
70436;PMS5003;57877;39.750;-104.894;2023-03-01T12:55:41;0;0;
70436;PMS5003;57877;39.750;-104.894;2023-03-01T12:58:06;0;0;
70436;PMS5003;57877;39.750;-104.894;2023-03-01T13:00:31;0;0;
70436;PMS5003;57877;39.750;-104.894;2023-03-01T13:02:56;0;0;
70436;PMS5003;57877;39.750;-104.894;2023-03-01T13:05:24;0;0;
70436;PMS5003;57877;39.750;-104.894;2023-03-01T13:07:48;0;0;
70436;PMS5003;57877;39.750;-104.894;2023-03-01T13:10:16;0;0;
70436;PMS5003;57877;39.750;-104.894;2023-03-01T13:15:00;0;0;
70436;PMS5003;57877;39.750;-104.894;2023-03-01T13:24:42;0;0;
70436;PMS5003;57877;39.750;-104.894;2023-03-01T13:27:10;0;0;
70436;PMS5003;57877;39.750;-104.894;2023-03-01T13:29:43;0;0;
70436;PMS5003;57877;39.750;-104.894;2023-03-01T13:31:56;0;0;
70436;PMS5003;57877;39.750;-104.894;2023-03-01T13:36:54;0;0;
70436;PMS5003;57877;39.750;-104.894;2023-03-01T13:44:02;0;0;
70436;PMS5003;57877;39.750;-104.894;2023-03-01T13:46:27;0;0;
70436;PMS5003;57877;39.750;-104.894;2023-03-01T13:48:53;0;0;
70436;PMS5003;57877;39.750;-104.894;2023-03-01T13:51:20;0;0;
70436;PMS5003;57877;39.750;-104.894;2023-03-01T13:53:43;0;0;
70436;PMS5003;57877;39.750;-104.894;2023-03-01T13:56:09;0;0;
70436;PMS5003;57877;39.750;-104.894;2023-03-01T13:58:33;0;0;
70436;PMS5003;57877;39.750;-104.894;2023-03-01T14:00:59;0;0;
70436;PMS5003;57877;39.750;-104.894;2023-03-01T14:03:23;0;0;
70436;PMS5003;57877;39.750;-104.894;2023-03-01T14:10:40;0;0;
70436;PMS5003;57877;39.750;-104.894;2023-03-01T14:13:06;0;0;
70436;PMS5003;57877;39.750;-104.894;2023-03-01T14:15:31;0;0;
70436;PMS5003;57877;39.750;-104.894;2023-03-01T14:17:55;0;0;
70436;PMS5003;57877;39.750;-104.894;2023-03-01T14:20:20;0;0;
70436;PMS5003;57877;39.750;-104.894;2023-03-01T14:22:44;0;0;
70436;PMS5003;57877;39.750;-104.894;2023-03-01T14:27:36;0;0;
70436;PMS5003;57877;39.750;-104.894;2023-03-01T14:30:00;0;0;
70436;PMS5003;57877;39.750;-104.894;2023-03-01T14:32:25;0;0;
70436;PMS5003;57877;39.750;-104.894;2023-03-01T14:34:50;0;0;
70436;PMS5003;57877;39.750;-104.894;2023-03-01T14:37:19;0;0;
70436;PMS5003;57877;39.750;-104.894;2023-03-01T14:39:40;0;0;
70436;PMS5003;57877;39.750;-104.894;2023-03-01T14:42:05;0;0;
70436;PMS5003;57877;39.750;-104.894;2023-03-01T14:44:30;0;0;
70436;PMS5003;57877;39.750;-104.894;2023-03-01T14:46:55;0;0;
70436;PMS5003;57877;39.750;-104.894;2023-03-01T14:49:21;0;0;
70436;PMS5003;57877;39.750;-104.894;2023-03-01T14:51:49;0;0;
70436;PMS5003;57877;39.750;-104.894;2023-03-01T14:54:18;3;1;
70436;PMS5003;57877;39.750;-104.894;2023-03-01T14:59:01;9;7;
70436;PMS5003;57877;39.750;-104.894;2023-03-01T15:01:26;6;6;
70436;PMS5003;57877;39.750;-104.894;2023-03-01T15:03:51;5;4;
70436;PMS5003;57877;39.750;-104.894;2023-03-01T15:06:17;6;6;
70436;PMS5003;57877;39.750;-104.894;2023-03-01T15:08:42;8;8;
70436;PMS5003;57877;39.750;-104.894;2023-03-01T15:13:32;7;5;
70436;PMS5003;57877;39.750;-104.894;2023-03-01T15:16:01;6;6;
70436;PMS5003;57877;39.750;-104.894;2023-03-01T15:18:22;6;6;
70436;PMS5003;57877;39.750;-104.894;2023-03-01T15:20:47;6;6;
70436;PMS5003;57877;39.750;-104.894;2023-03-01T15:25:37;4;4;
70436;PMS5003;57877;39.750;-104.894;2023-03-01T15:28:02;5;5;
70436;PMS5003;57877;39.750;-104.894;2023-03-01T15:30:29;7;6;
70436;PMS5003;57877;39.750;-104.894;2023-03-01T15:37:44;5;5;
70436;PMS5003;57877;39.750;-104.894;2023-03-01T15:42:36;5;5;
70436;PMS5003;57877;39.750;-104.894;2023-03-01T15:47:25;5;4;
70436;PMS5003;57877;39.750;-104.894;2023-03-01T15:49:48;4;4;
70436;PMS5003;57877;39.750;-104.894;2023-03-01T15:52:14;5;4;
70436;PMS5003;57877;39.750;-104.894;2023-03-01T15:54:38;5;4;
70436;PMS5003;57877;39.750;-104.894;2023-03-01T15:57:04;3;3;
70436;PMS5003;57877;39.750;-104.894;2023-03-01T15:59:28;6;4;
70436;PMS5003;57877;39.750;-104.894;2023-03-01T16:01:54;9;7;
70436;PMS5003;57877;39.750;-104.894;2023-03-01T16:04:19;6;6;
70436;PMS5003;57877;39.750;-104.894;2023-03-01T16:06:44;4;4;
70436;PMS5003;57877;39.750;-104.894;2023-03-01T16:09:09;5;5;
70436;PMS5003;57877;39.750;-104.894;2023-03-01T16:11:34;3;3;
70436;PMS5003;57877;39.750;-104.894;2023-03-01T16:13:59;4;4;
70436;PMS5003;57877;39.750;-104.894;2023-03-01T16:16:24;4;4;
70436;PMS5003;57877;39.750;-104.894;2023-03-01T16:18:49;6;4;
70436;PMS5003;57877;39.750;-104.894;2023-03-01T16:21:16;7;5;
70436;PMS5003;57877;39.750;-104.894;2023-03-01T16:23:40;6;5;
70436;PMS5003;57877;39.750;-104.894;2023-03-01T16:26:05;2;2;
70436;PMS5003;57877;39.750;-104.894;2023-03-01T16:28:30;5;2;
70436;PMS5003;57877;39.750;-104.894;2023-03-01T16:30:55;5;4;
70436;PMS5003;57877;39.750;-104.894;2023-03-01T16:33:20;3;3;
70436;PMS5003;57877;39.750;-104.894;2023-03-01T16:35:45;4;3;
70436;PMS5003;57877;39.750;-104.894;2023-03-01T16:38:11;2;2;
70436;PMS5003;57877;39.750;-104.894;2023-03-01T16:40:36;2;2;
70436;PMS5003;57877;39.750;-104.894;2023-03-01T16:43:01;0;0;
70436;PMS5003;57877;39.750;-104.894;2023-03-01T16:45:26;1;1;
70436;PMS5003;57877;39.750;-104.894;2023-03-01T16:47:51;0;0;
70436;PMS5003;57877;39.750;-104.894;2023-03-01T16:50:16;0;0;
70436;PMS5003;57877;39.750;-104.894;2023-03-01T16:52:41;0;0;
70436;PMS5003;57877;39.750;-104.894;2023-03-01T16:55:07;0;0;
70436;PMS5003;57877;39.750;-104.894;2023-03-01T16:57:33;0;0;
70436;PMS5003;57877;39.750;-104.894;2023-03-01T16:59:57;0;0;
70436;PMS5003;57877;39.750;-104.894;2023-03-01T17:02:22;0;0;
70436;PMS5003;57877;39.750;-104.894;2023-03-01T17:04:51;0;0;
70436;PMS5003;57877;39.750;-104.894;2023-03-01T17:07:12;0;0;
70436;PMS5003;57877;39.750;-104.894;2023-03-01T17:09:37;0;0;
70436;PMS5003;57877;39.750;-104.894;2023-03-01T17:12:02;0;0;
70436;PMS5003;57877;39.750;-104.894;2023-03-01T17:14:28;1;1;
70436;PMS5003;57877;39.750;-104.894;2023-03-01T17:16:52;0;0;
70436;PMS5003;57877;39.750;-104.894;2023-03-01T17:19:17;0;0;
70436;PMS5003;57877;39.750;-104.894;2023-03-01T17:21:42;0;0;
70436;PMS5003;57877;39.750;-104.894;2023-03-01T17:24:07;0;0;
70436;PMS5003;57877;39.750;-104.894;2023-03-01T17:26:32;1;1;
70436;PMS5003;57877;39.750;-104.894;2023-03-01T17:28:57;1;1;
70436;PMS5003;57877;39.750;-104.894;2023-03-01T17:31:24;2;1;